sensor_id;sensor_type;location;lat;lon;timestamp;pressure;altitude;pressure_sealevel;temperature;humidity
38630;BME280;24384;51.988;4.644;2022-09-09T00:02:08;101030.78;;;17.89;100.00
38630;BME280;24384;51.988;4.644;2022-09-09T00:04:39;101040.00;;;17.82;100.00
38630;BME280;24384;51.988;4.644;2022-09-09T00:07:47;101043.81;;;18.05;100.00
38630;BME280;24384;51.988;4.644;2022-09-09T00:10:39;101032.63;;;18.12;100.00
38630;BME280;24384;51.988;4.644;2022-09-09T00:18:16;101040.28;;;17.93;100.00
38630;BME280;24384;51.988;4.644;2022-09-09T00:23:24;101048.97;;;18.00;100.00
38630;BME280;24384;51.988;4.644;2022-09-09T00:28:22;101033.19;;;17.87;100.00
38630;BME280;24384;51.988;4.644;2022-09-09T00:30:48;101034.66;;;17.96;100.00
38630;BME280;24384;51.988;4.644;2022-09-09T00:33:16;101029.78;;;17.97;100.00
38630;BME280;24384;51.988;4.644;2022-09-09T00:35:55;101031.25;;;17.75;100.00
38630;BME280;24384;51.988;4.644;2022-09-09T00:38:41;101040.78;;;17.51;100.00
38630;BME280;24384;51.988;4.644;2022-09-09T00:44:00;101035.75;;;17.60;100.00
38630;BME280;24384;51.988;4.644;2022-09-09T00:47:06;101046.16;;;17.68;100.00
38630;BME280;24384;51.988;4.644;2022-09-09T00:52:21;101022.56;;;17.68;100.00
38630;BME280;24384;51.988;4.644;2022-09-09T00:54:57;101036.97;;;17.59;100.00
38630;BME280;24384;51.988;4.644;2022-09-09T00:57:30;101030.44;;;17.74;100.00
38630;BME280;24384;51.988;4.644;2022-09-09T01:10:51;101048.53;;;17.66;100.00
38630;BME280;24384;51.988;4.644;2022-09-09T01:13:29;101045.16;;;17.61;100.00
38630;BME280;24384;51.988;4.644;2022-09-09T01:16:00;101049.97;;;17.45;100.00
38630;BME280;24384;51.988;4.644;2022-09-09T01:18:30;101041.31;;;17.41;100.00
38630;BME280;24384;51.988;4.644;2022-09-09T01:26:30;101035.78;;;17.76;100.00
38630;BME280;24384;51.988;4.644;2022-09-09T01:28:57;101030.72;;;17.69;100.00
38630;BME280;24384;51.988;4.644;2022-09-09T01:31:53;101033.84;;;17.80;100.00
38630;BME280;24384;51.988;4.644;2022-09-09T01:34:20;101030.34;;;17.87;100.00
38630;BME280;24384;51.988;4.644;2022-09-09T01:39:15;101019.03;;;17.74;100.00
38630;BME280;24384;51.988;4.644;2022-09-09T01:41:41;101016.00;;;17.83;100.00
38630;BME280;24384;51.988;4.644;2022-09-09T01:44:07;101017.75;;;17.88;100.00
38630;BME280;24384;51.988;4.644;2022-09-09T01:46:33;101026.69;;;17.70;100.00
38630;BME280;24384;51.988;4.644;2022-09-09T01:49:00;101019.25;;;17.82;100.00
38630;BME280;24384;51.988;4.644;2022-09-09T01:51:27;101012.72;;;17.81;100.00
38630;BME280;24384;51.988;4.644;2022-09-09T01:53:52;101018.13;;;17.55;100.00
38630;BME280;24384;51.988;4.644;2022-09-09T01:56:24;101018.53;;;17.41;100.00
38630;BME280;24384;51.988;4.644;2022-09-09T02:04:03;101018.09;;;17.39;100.00
38630;BME280;24384;51.988;4.644;2022-09-09T02:06:38;101021.84;;;17.43;100.00
38630;BME280;24384;51.988;4.644;2022-09-09T02:09:06;101027.66;;;17.47;100.00
38630;BME280;24384;51.988;4.644;2022-09-09T02:11:33;101020.88;;;17.67;100.00
38630;BME280;24384;51.988;4.644;2022-09-09T02:14:06;101020.84;;;17.51;100.00
38630;BME280;24384;51.988;4.644;2022-09-09T02:17:09;101020.94;;;17.39;100.00
38630;BME280;24384;51.988;4.644;2022-09-09T02:19:40;101020.38;;;17.49;100.00
38630;BME280;24384;51.988;4.644;2022-09-09T02:22:10;101021.06;;;17.58;100.00
38630;BME280;24384;51.988;4.644;2022-09-09T02:24:37;101016.72;;;17.33;100.00
38630;BME280;24384;51.988;4.644;2022-09-09T02:27:06;101010.75;;;17.38;100.00
38630;BME280;24384;51.988;4.644;2022-09-09T02:29:36;101021.84;;;17.43;100.00
38630;BME280;24384;51.988;4.644;2022-09-09T02:32:06;101015.88;;;17.48;100.00
38630;BME280;24384;51.988;4.644;2022-09-09T02:34:36;101021.66;;;17.36;100.00
38630;BME280;24384;51.988;4.644;2022-09-09T02:37:06;101003.03;;;17.39;100.00
38630;BME280;24384;51.988;4.644;2022-09-09T02:39:33;101003.53;;;17.56;100.00
38630;BME280;24384;51.988;4.644;2022-09-09T02:41:58;100996.41;;;17.50;100.00
38630;BME280;24384;51.988;4.644;2022-09-09T02:44:25;100994.31;;;17.78;100.00
38630;BME280;24384;51.988;4.644;2022-09-09T02:55:08;100977.75;;;17.37;100.00
38630;BME280;24384;51.988;4.644;2022-09-09T02:57:37;100985.53;;;17.68;100.00
38630;BME280;24384;51.988;4.644;2022-09-09T03:00:04;100977.47;;;18.05;100.00
38630;BME280;24384;51.988;4.644;2022-09-09T03:02:30;100966.38;;;17.84;100.00
38630;BME280;24384;51.988;4.644;2022-09-09T03:04:56;100983.19;;;17.42;100.00
38630;BME280;24384;51.988;4.644;2022-09-09T03:07:21;100980.28;;;17.54;100.00
38630;BME280;24384;51.988;4.644;2022-09-09T03:09:47;100988.91;;;17.58;100.00
38630;BME280;24384;51.988;4.644;2022-09-09T03:12:12;100989.09;;;17.06;100.00
38630;BME280;24384;51.988;4.644;2022-09-09T03:14:38;100999.91;;;17.44;100.00
38630;BME280;24384;51.988;4.644;2022-09-09T03:17:05;100993.34;;;17.12;100.00
38630;BME280;24384;51.988;4.644;2022-09-09T03:19:30;101001.41;;;17.10;100.00
38630;BME280;24384;51.988;4.644;2022-09-09T03:21:57;100999.31;;;17.07;100.00
38630;BME280;24384;51.988;4.644;2022-09-09T03:24:23;100998.63;;;16.98;100.00
38630;BME280;24384;51.988;4.644;2022-09-09T03:26:49;101009.72;;;16.59;100.00
38630;BME280;24384;51.988;4.644;2022-09-09T03:29:16;101027.94;;;16.46;100.00
38630;BME280;24384;51.988;4.644;2022-09-09T03:31:42;101032.34;;;16.56;100.00
38630;BME280;24384;51.988;4.644;2022-09-09T03:34:08;101033.56;;;16.43;100.00
38630;BME280;24384;51.988;4.644;2022-09-09T03:36:33;101050.47;;;16.51;100.00
38630;BME280;24384;51.988;4.644;2022-09-09T03:38:59;101049.53;;;16.47;100.00
38630;BME280;24384;51.988;4.644;2022-09-09T03:41:25;101066.97;;;16.22;100.00
38630;BME280;24384;51.988;4.644;2022-09-09T03:43:51;101063.53;;;16.16;100.00
38630;BME280;24384;51.988;4.644;2022-09-09T03:46:18;101082.94;;;16.26;100.00
38630;BME280;24384;51.988;4.644;2022-09-09T03:48:43;101094.56;;;16.45;100.00
38630;BME280;24384;51.988;4.644;2022-09-09T03:51:09;101089.44;;;16.39;100.00
38630;BME280;24384;51.988;4.644;2022-09-09T03:53:36;101088.38;;;16.67;100.00
38630;BME280;24384;51.988;4.644;2022-09-09T03:56:03;101082.69;;;16.55;100.00
38630;BME280;24384;51.988;4.644;2022-09-09T03:58:29;101084.72;;;16.55;100.00
38630;BME280;24384;51.988;4.644;2022-09-09T04:01:03;101077.88;;;16.32;100.00
38630;BME280;24384;51.988;4.644;2022-09-09T04:03:29;101086.84;;;16.46;100.00
38630;BME280;24384;51.988;4.644;2022-09-09T04:05:56;101084.16;;;16.25;100.00
38630;BME280;24384;51.988;4.644;2022-09-09T04:08:23;101089.94;;;16.29;100.00
38630;BME280;24384;51.988;4.644;2022-09-09T04:10:53;101088.38;;;16.67;100.00
38630;BME280;24384;51.988;4.644;2022-09-09T04:13:20;101080.22;;;16.30;100.00
38630;BME280;24384;51.988;4.644;2022-09-09T04:15:57;101085.53;;;16.43;100.00
38630;BME280;24384;51.988;4.644;2022-09-09T04:18:23;101094.63;;;16.49;100.00
38630;BME280;24384;51.988;4.644;2022-09-09T04:20:50;101085.66;;;16.59;100.00
38630;BME280;24384;51.988;4.644;2022-09-09T04:23:17;101075.06;;;16.72;100.00
38630;BME280;24384;51.988;4.644;2022-09-09T04:25:50;101066.84;;;16.42;100.00
38630;BME280;24384;51.988;4.644;2022-09-09T04:28:18;101066.31;;;16.52;100.00
38630;BME280;24384;51.988;4.644;2022-09-09T04:30:44;101066.47;;;16.44;100.00
38630;BME280;24384;51.988;4.644;2022-09-09T04:33:10;101076.78;;;16.36;100.00
38630;BME280;24384;51.988;4.644;2022-09-09T04:35:37;101076.44;;;16.01;100.00
38630;BME280;24384;51.988;4.644;2022-09-09T04:38:03;101072.91;;;16.17;100.00
38630;BME280;24384;51.988;4.644;2022-09-09T04:40:29;101086.16;;;16.25;100.00
38630;BME280;24384;51.988;4.644;2022-09-09T04:42:58;101075.03;;;16.32;100.00
38630;BME280;24384;51.988;4.644;2022-09-09T04:45:23;101065.88;;;16.38;100.00
38630;BME280;24384;51.988;4.644;2022-09-09T04:47:48;101064.25;;;16.25;100.00
38630;BME280;24384;51.988;4.644;2022-09-09T04:50:14;101066.75;;;16.15;100.00
38630;BME280;24384;51.988;4.644;2022-09-09T04:52:40;101078.00;;;15.99;100.00
38630;BME280;24384;51.988;4.644;2022-09-09T04:55:06;101099.44;;;16.08;100.00
38630;BME280;24384;51.988;4.644;2022-09-09T04:57:32;101084.03;;;16.22;100.00
38630;BME280;24384;51.988;4.644;2022-09-09T04:59:58;101090.66;;;16.26;100.00
38630;BME280;24384;51.988;4.644;2022-09-09T05:02:25;101100.97;;;16.54;100.00
38630;BME280;24384;51.988;4.644;2022-09-09T05:04:51;101095.28;;;16.54;100.00
38630;BME280;24384;51.988;4.644;2022-09-09T05:07:16;101096.44;;;16.65;100.00
38630;BME280;24384;51.988;4.644;2022-09-09T05:09:42;101099.88;;;16.59;100.00
38630;BME280;24384;51.988;4.644;2022-09-09T05:12:08;101096.78;;;16.64;100.00
38630;BME280;24384;51.988;4.644;2022-09-09T05:14:33;101087.94;;;16.53;100.00
38630;BME280;24384;51.988;4.644;2022-09-09T05:17:03;101091.41;;;16.75;100.00
38630;BME280;24384;51.988;4.644;2022-09-09T05:19:28;101084.84;;;16.34;100.00
38630;BME280;24384;51.988;4.644;2022-09-09T05:21:54;101094.22;;;16.87;100.00
38630;BME280;24384;51.988;4.644;2022-09-09T05:24:19;101078.41;;;16.74;100.00
38630;BME280;24384;51.988;4.644;2022-09-09T05:26:45;101077.69;;;16.77;100.00
38630;BME280;24384;51.988;4.644;2022-09-09T05:29:10;101068.16;;;17.12;100.00
38630;BME280;24384;51.988;4.644;2022-09-09T05:31:36;101062.63;;;17.04;100.00
38630;BME280;24384;51.988;4.644;2022-09-09T05:34:01;101069.31;;;16.96;100.00
38630;BME280;24384;51.988;4.644;2022-09-09T05:36:27;101064.19;;;17.01;100.00
38630;BME280;24384;51.988;4.644;2022-09-09T05:38:53;101067.16;;;17.05;100.00
38630;BME280;24384;51.988;4.644;2022-09-09T05:41:21;101078.44;;;17.17;100.00
38630;BME280;24384;51.988;4.644;2022-09-09T05:43:48;101074.44;;;17.18;100.00
38630;BME280;24384;51.988;4.644;2022-09-09T05:46:17;101084.59;;;17.47;100.00
38630;BME280;24384;51.988;4.644;2022-09-09T05:48:45;101082.38;;;17.40;100.00
38630;BME280;24384;51.988;4.644;2022-09-09T05:51:16;101077.97;;;17.43;100.00
38630;BME280;24384;51.988;4.644;2022-09-09T05:53:42;101083.09;;;17.80;100.00
38630;BME280;24384;51.988;4.644;2022-09-09T05:56:13;101065.63;;;17.98;100.00
38630;BME280;24384;51.988;4.644;2022-09-09T05:58:40;101058.44;;;18.19;100.00
38630;BME280;24384;51.988;4.644;2022-09-09T06:01:11;101046.28;;;18.22;100.00
38630;BME280;24384;51.988;4.644;2022-09-09T06:03:38;101039.50;;;18.11;100.00
38630;BME280;24384;51.988;4.644;2022-09-09T06:06:06;101034.38;;;18.01;100.00
38630;BME280;24384;51.988;4.644;2022-09-09T06:08:38;101041.91;;;17.94;100.00
38630;BME280;24384;51.988;4.644;2022-09-09T06:11:08;101048.34;;;18.22;100.00
38630;BME280;24384;51.988;4.644;2022-09-09T06:13:34;101039.06;;;18.09;100.00
38630;BME280;24384;51.988;4.644;2022-09-09T06:16:00;101034.91;;;18.07;100.00
38630;BME280;24384;51.988;4.644;2022-09-09T06:18:26;101036.94;;;18.22;100.00
38630;BME280;24384;51.988;4.644;2022-09-09T06:20:59;101033.59;;;18.35;100.00
38630;BME280;24384;51.988;4.644;2022-09-09T06:23:26;101013.66;;;18.20;100.00
38630;BME280;24384;51.988;4.644;2022-09-09T06:26:03;101030.25;;;17.83;100.00
38630;BME280;24384;51.988;4.644;2022-09-09T06:28:31;101031.66;;;18.24;100.00
38630;BME280;24384;51.988;4.644;2022-09-09T06:30:58;101029.66;;;18.24;100.00
38630;BME280;24384;51.988;4.644;2022-09-09T06:33:24;101021.22;;;18.12;100.00
38630;BME280;24384;51.988;4.644;2022-09-09T06:35:52;101011.28;;;18.06;100.00
38630;BME280;24384;51.988;4.644;2022-09-09T06:38:18;101013.41;;;18.44;100.00
38630;BME280;24384;51.988;4.644;2022-09-09T06:40:53;101012.94;;;18.42;100.00
38630;BME280;24384;51.988;4.644;2022-09-09T06:43:23;101006.09;;;18.62;100.00
38630;BME280;24384;51.988;4.644;2022-09-09T06:46:02;101004.88;;;18.63;100.00
38630;BME280;24384;51.988;4.644;2022-09-09T06:48:28;100990.72;;;18.67;100.00
38630;BME280;24384;51.988;4.644;2022-09-09T06:51:04;100996.28;;;18.44;100.00
38630;BME280;24384;51.988;4.644;2022-09-09T06:53:30;101012.66;;;18.47;100.00
38630;BME280;24384;51.988;4.644;2022-09-09T06:55:58;101001.22;;;18.63;100.00
38630;BME280;24384;51.988;4.644;2022-09-09T06:58:23;100969.91;;;18.66;100.00
38630;BME280;24384;51.988;4.644;2022-09-09T07:00:49;100962.81;;;18.41;100.00
38630;BME280;24384;51.988;4.644;2022-09-09T07:03:14;100976.59;;;18.55;100.00
38630;BME280;24384;51.988;4.644;2022-09-09T07:05:40;100970.63;;;18.82;100.00
38630;BME280;24384;51.988;4.644;2022-09-09T07:08:05;100962.00;;;18.60;100.00
38630;BME280;24384;51.988;4.644;2022-09-09T07:10:31;100963.59;;;18.76;100.00
38630;BME280;24384;51.988;4.644;2022-09-09T07:12:57;100956.75;;;18.62;100.00
38630;BME280;24384;51.988;4.644;2022-09-09T07:15:22;100947.78;;;19.24;100.00
38630;BME280;24384;51.988;4.644;2022-09-09T07:17:49;100945.75;;;19.25;100.00
38630;BME280;24384;51.988;4.644;2022-09-09T07:20:15;100933.97;;;19.26;100.00
38630;BME280;24384;51.988;4.644;2022-09-09T07:22:41;100927.00;;;19.24;100.00
38630;BME280;24384;51.988;4.644;2022-09-09T07:25:07;100929.78;;;19.20;100.00
38630;BME280;24384;51.988;4.644;2022-09-09T07:27:33;100921.91;;;19.14;100.00
38630;BME280;24384;51.988;4.644;2022-09-09T07:29:58;100931.53;;;19.06;100.00
38630;BME280;24384;51.988;4.644;2022-09-09T07:32:24;100914.16;;;18.91;100.00
38630;BME280;24384;51.988;4.644;2022-09-09T07:34:51;100907.94;;;19.09;100.00
38630;BME280;24384;51.988;4.644;2022-09-09T07:37:16;100914.63;;;19.39;100.00
38630;BME280;24384;51.988;4.644;2022-09-09T07:39:42;100923.66;;;18.99;100.00
38630;BME280;24384;51.988;4.644;2022-09-09T07:42:07;100926.94;;;18.78;100.00
38630;BME280;24384;51.988;4.644;2022-09-09T07:44:34;100939.56;;;18.77;100.00
38630;BME280;24384;51.988;4.644;2022-09-09T07:47:01;100930.13;;;18.96;100.00
38630;BME280;24384;51.988;4.644;2022-09-09T07:49:27;100930.56;;;18.75;100.00
38630;BME280;24384;51.988;4.644;2022-09-09T07:51:53;100927.47;;;18.84;100.00
38630;BME280;24384;51.988;4.644;2022-09-09T07:54:19;100935.03;;;18.76;100.00
38630;BME280;24384;51.988;4.644;2022-09-09T07:56:46;100927.50;;;18.87;100.00
38630;BME280;24384;51.988;4.644;2022-09-09T07:59:12;100932.81;;;18.66;100.00
38630;BME280;24384;51.988;4.644;2022-09-09T08:01:39;100932.19;;;18.76;100.00
38630;BME280;24384;51.988;4.644;2022-09-09T08:04:07;100947.69;;;18.75;100.00
38630;BME280;24384;51.988;4.644;2022-09-09T08:06:38;100943.84;;;18.68;100.00
38630;BME280;24384;51.988;4.644;2022-09-09T08:09:05;100940.63;;;18.69;100.00
38630;BME280;24384;51.988;4.644;2022-09-09T08:11:31;100934.13;;;18.91;100.00
38630;BME280;24384;51.988;4.644;2022-09-09T08:13:58;100938.06;;;18.83;100.00
38630;BME280;24384;51.988;4.644;2022-09-09T08:16:26;100952.16;;;18.76;100.00
38630;BME280;24384;51.988;4.644;2022-09-09T08:18:52;100937.16;;;18.41;100.00
38630;BME280;24384;51.988;4.644;2022-09-09T08:21:22;100953.00;;;18.58;100.00
38630;BME280;24384;51.988;4.644;2022-09-09T08:23:52;100956.22;;;18.56;100.00
38630;BME280;24384;51.988;4.644;2022-09-09T08:26:20;100961.25;;;18.63;100.00
38630;BME280;24384;51.988;4.644;2022-09-09T08:28:50;100964.06;;;18.78;100.00
38630;BME280;24384;51.988;4.644;2022-09-09T08:31:22;100964.63;;;18.68;100.00
38630;BME280;24384;51.988;4.644;2022-09-09T08:33:48;100966.56;;;18.45;100.00
38630;BME280;24384;51.988;4.644;2022-09-09T08:36:16;100970.31;;;18.87;100.00
38630;BME280;24384;51.988;4.644;2022-09-09T08:38:42;100971.88;;;18.81;100.00
38630;BME280;24384;51.988;4.644;2022-09-09T08:41:15;100983.22;;;18.59;100.00
38630;BME280;24384;51.988;4.644;2022-09-09T08:43:46;100974.41;;;18.67;100.00
38630;BME280;24384;51.988;4.644;2022-09-09T08:46:44;100967.34;;;18.80;100.00
38630;BME280;24384;51.988;4.644;2022-09-09T08:51:56;100975.31;;;18.36;100.00
38630;BME280;24384;51.988;4.644;2022-09-09T08:54:23;100984.72;;;18.37;100.00
38630;BME280;24384;51.988;4.644;2022-09-09T08:56:50;100987.63;;;18.75;100.00
38630;BME280;24384;51.988;4.644;2022-09-09T08:59:17;100991.41;;;18.45;100.00
38630;BME280;24384;51.988;4.644;2022-09-09T09:04:45;101016.97;;;18.57;100.00
38630;BME280;24384;51.988;4.644;2022-09-09T09:07:33;101022.31;;;18.43;100.00
38630;BME280;24384;51.988;4.644;2022-09-09T09:13:02;101032.06;;;18.57;100.00
38630;BME280;24384;51.988;4.644;2022-09-09T09:15:33;101025.66;;;18.45;100.00
38630;BME280;24384;51.988;4.644;2022-09-09T09:18:02;101036.13;;;18.41;100.00
38630;BME280;24384;51.988;4.644;2022-09-09T09:20:52;101036.03;;;18.37;100.00
38630;BME280;24384;51.988;4.644;2022-09-09T09:23:23;101040.81;;;18.49;100.00
38630;BME280;24384;51.988;4.644;2022-09-09T09:25:50;101051.88;;;18.50;100.00
38630;BME280;24384;51.988;4.644;2022-09-09T09:28:25;101040.53;;;18.54;100.00
38630;BME280;24384;51.988;4.644;2022-09-09T09:30:55;101041.66;;;18.49;100.00
38630;BME280;24384;51.988;4.644;2022-09-09T09:35:52;101036.66;;;18.81;100.00
38630;BME280;24384;51.988;4.644;2022-09-09T09:38:24;101051.91;;;18.69;100.00
38630;BME280;24384;51.988;4.644;2022-09-09T09:40:58;101033.50;;;18.67;100.00
38630;BME280;24384;51.988;4.644;2022-09-09T09:43:32;101043.94;;;18.78;100.00
38630;BME280;24384;51.988;4.644;2022-09-09T09:45:58;101044.00;;;18.63;100.00
38630;BME280;24384;51.988;4.644;2022-09-09T09:48:25;101032.09;;;18.96;100.00
38630;BME280;24384;51.988;4.644;2022-09-09T09:50:57;101038.38;;;19.05;100.00
38630;BME280;24384;51.988;4.644;2022-09-09T09:53:26;101024.66;;;19.33;100.00
38630;BME280;24384;51.988;4.644;2022-09-09T09:56:00;101011.25;;;19.56;100.00
38630;BME280;24384;51.988;4.644;2022-09-09T09:58:27;100986.75;;;19.78;100.00
38630;BME280;24384;51.988;4.644;2022-09-09T10:00:56;100959.25;;;20.82;100.00
38630;BME280;24384;51.988;4.644;2022-09-09T10:05:48;100933.78;;;20.40;100.00
38630;BME280;24384;51.988;4.644;2022-09-09T10:08:15;100926.69;;;20.30;100.00
38630;BME280;24384;51.988;4.644;2022-09-09T10:21:31;100921.97;;;19.63;100.00
38630;BME280;24384;51.988;4.644;2022-09-09T10:29:47;100941.78;;;19.07;100.00
38630;BME280;24384;51.988;4.644;2022-09-09T10:37:54;100976.41;;;19.28;100.00
38630;BME280;24384;51.988;4.644;2022-09-09T10:40:34;100972.63;;;19.20;100.00
38630;BME280;24384;51.988;4.644;2022-09-09T10:46:20;100974.97;;;19.37;100.00
38630;BME280;24384;51.988;4.644;2022-09-09T10:51:56;100984.13;;;19.05;100.00
38630;BME280;24384;51.988;4.644;2022-09-09T10:57:40;100994.94;;;19.15;100.00
38630;BME280;24384;51.988;4.644;2022-09-09T11:00:16;100997.28;;;19.09;100.00
38630;BME280;24384;51.988;4.644;2022-09-09T11:02:42;101005.09;;;19.12;100.00
38630;BME280;24384;51.988;4.644;2022-09-09T11:05:27;100991.66;;;19.13;100.00
38630;BME280;24384;51.988;4.644;2022-09-09T11:08:12;100996.53;;;19.54;100.00
38630;BME280;24384;51.988;4.644;2022-09-09T11:13:38;100969.38;;;19.41;100.00
38630;BME280;24384;51.988;4.644;2022-09-09T11:19:19;100974.91;;;19.79;100.00
38630;BME280;24384;51.988;4.644;2022-09-09T11:21:49;100961.06;;;20.34;100.00
38630;BME280;24384;51.988;4.644;2022-09-09T11:26:58;100937.41;;;19.84;100.00
38630;BME280;24384;51.988;4.644;2022-09-09T11:29:41;100955.41;;;19.85;100.00
38630;BME280;24384;51.988;4.644;2022-09-09T11:40:27;100949.94;;;19.76;100.00
38630;BME280;24384;51.988;4.644;2022-09-09T11:43:13;100938.41;;;19.95;100.00
38630;BME280;24384;51.988;4.644;2022-09-09T11:45:49;100943.84;;;20.04;100.00
38630;BME280;24384;51.988;4.644;2022-09-09T11:50:59;100934.56;;;19.58;100.00
38630;BME280;24384;51.988;4.644;2022-09-09T11:53:25;100954.09;;;19.56;100.00
38630;BME280;24384;51.988;4.644;2022-09-09T11:56:22;100979.53;;;19.19;100.00
38630;BME280;24384;51.988;4.644;2022-09-09T11:59:04;100990.94;;;19.19;100.00
38630;BME280;24384;51.988;4.644;2022-09-09T12:01:41;100996.69;;;19.00;100.00
38630;BME280;24384;51.988;4.644;2022-09-09T12:06:59;101002.25;;;19.12;100.00
38630;BME280;24384;51.988;4.644;2022-09-09T12:14:58;101007.06;;;19.31;100.00
38630;BME280;24384;51.988;4.644;2022-09-09T12:17:26;100997.94;;;19.41;100.00
38630;BME280;24384;51.988;4.644;2022-09-09T12:22:57;101013.47;;;19.24;100.00
38630;BME280;24384;51.988;4.644;2022-09-09T12:28:22;101057.91;;;19.03;100.00
38630;BME280;24384;51.988;4.644;2022-09-09T12:33:23;101197.97;;;18.59;100.00
38630;BME280;24384;51.988;4.644;2022-09-09T12:35:55;101247.41;;;18.63;100.00
38630;BME280;24384;51.988;4.644;2022-09-09T12:38:37;101268.25;;;19.33;100.00
38630;BME280;24384;51.988;4.644;2022-09-09T12:41:04;101267.50;;;19.52;100.00
38630;BME280;24384;51.988;4.644;2022-09-09T12:43:30;101249.63;;;19.74;100.00
38630;BME280;24384;51.988;4.644;2022-09-09T12:46:01;101220.88;;;19.67;100.00
38630;BME280;24384;51.988;4.644;2022-09-09T12:48:32;101190.91;;;19.58;100.00
38630;BME280;24384;51.988;4.644;2022-09-09T12:50:59;101170.13;;;19.41;100.00
38630;BME280;24384;51.988;4.644;2022-09-09T12:53:51;101174.94;;;19.37;100.00
38630;BME280;24384;51.988;4.644;2022-09-09T12:56:26;101172.53;;;19.59;100.00
38630;BME280;24384;51.988;4.644;2022-09-09T12:58:53;101177.19;;;19.47;100.00
38630;BME280;24384;51.988;4.644;2022-09-09T13:01:26;101178.97;;;19.36;100.00
38630;BME280;24384;51.988;4.644;2022-09-09T13:03:52;101174.63;;;18.88;100.00
38630;BME280;24384;51.988;4.644;2022-09-09T13:08:53;101181.59;;;19.26;100.00
38630;BME280;24384;51.988;4.644;2022-09-09T13:13:53;101152.28;;;19.10;100.00
38630;BME280;24384;51.988;4.644;2022-09-09T13:16:26;101158.38;;;19.08;100.00
38630;BME280;24384;51.988;4.644;2022-09-09T13:19:00;101182.03;;;19.09;100.00
38630;BME280;24384;51.988;4.644;2022-09-09T13:21:37;101170.31;;;19.14;100.00
38630;BME280;24384;51.988;4.644;2022-09-09T13:24:05;101182.59;;;19.52;100.00
38630;BME280;24384;51.988;4.644;2022-09-09T13:26:33;101158.88;;;19.33;100.00
38630;BME280;24384;51.988;4.644;2022-09-09T13:29:34;101174.19;;;19.21;100.00
38630;BME280;24384;51.988;4.644;2022-09-09T13:32:15;101192.38;;;20.13;100.00
38630;BME280;24384;51.988;4.644;2022-09-09T13:34:51;101164.00;;;20.98;100.00
38630;BME280;24384;51.988;4.644;2022-09-09T13:37:37;101103.91;;;22.02;100.00
38630;BME280;24384;51.988;4.644;2022-09-09T13:40:05;101066.91;;;20.90;100.00
38630;BME280;24384;51.988;4.644;2022-09-09T13:42:37;101056.47;;;21.34;100.00
38630;BME280;24384;51.988;4.644;2022-09-09T13:45:04;101048.81;;;20.82;100.00
38630;BME280;24384;51.988;4.644;2022-09-09T13:47:32;101063.38;;;21.00;100.00
38630;BME280;24384;51.988;4.644;2022-09-09T13:49:58;101051.00;;;20.92;100.00
38630;BME280;24384;51.988;4.644;2022-09-09T13:52:26;101061.28;;;20.41;100.00
38630;BME280;24384;51.988;4.644;2022-09-09T13:54:52;101082.31;;;20.52;100.00
38630;BME280;24384;51.988;4.644;2022-09-09T13:57:24;101076.03;;;19.71;100.00
38630;BME280;24384;51.988;4.644;2022-09-09T13:59:51;101093.03;;;19.64;100.00
38630;BME280;24384;51.988;4.644;2022-09-09T14:02:17;101148.00;;;19.77;100.00
38630;BME280;24384;51.988;4.644;2022-09-09T14:04:43;101167.22;;;19.03;100.00
38630;BME280;24384;51.988;4.644;2022-09-09T14:07:11;101180.00;;;18.74;100.00
38630;BME280;24384;51.988;4.644;2022-09-09T14:09:38;101229.72;;;18.73;100.00
38630;BME280;24384;51.988;4.644;2022-09-09T14:12:04;101264.34;;;18.72;100.00
38630;BME280;24384;51.988;4.644;2022-09-09T14:14:30;101292.22;;;18.63;100.00
38630;BME280;24384;51.988;4.644;2022-09-09T14:16:55;101319.75;;;18.86;100.00
38630;BME280;24384;51.988;4.644;2022-09-09T14:19:21;101335.84;;;18.94;100.00
38630;BME280;24384;51.988;4.644;2022-09-09T14:21:46;101334.66;;;19.11;100.00
38630;BME280;24384;51.988;4.644;2022-09-09T14:24:11;101325.78;;;19.32;100.00
38630;BME280;24384;51.988;4.644;2022-09-09T14:26:37;101300.38;;;19.27;100.00
38630;BME280;24384;51.988;4.644;2022-09-09T14:29:03;101287.03;;;19.50;100.00
38630;BME280;24384;51.988;4.644;2022-09-09T14:31:29;101288.88;;;19.08;100.00
38630;BME280;24384;51.988;4.644;2022-09-09T14:33:54;101311.50;;;19.32;100.00
38630;BME280;24384;51.988;4.644;2022-09-09T14:36:20;101302.69;;;19.56;100.00
38630;BME280;24384;51.988;4.644;2022-09-09T14:38:45;101315.34;;;19.55;100.00
38630;BME280;24384;51.988;4.644;2022-09-09T14:41:13;101318.03;;;19.67;100.00
38630;BME280;24384;51.988;4.644;2022-09-09T14:43:42;101331.00;;;19.80;100.00
38630;BME280;24384;51.988;4.644;2022-09-09T14:46:12;101296.09;;;19.52;100.00
38630;BME280;24384;51.988;4.644;2022-09-09T14:48:38;101309.63;;;20.13;100.00
38630;BME280;24384;51.988;4.644;2022-09-09T14:51:10;101292.56;;;19.97;100.00
38630;BME280;24384;51.988;4.644;2022-09-09T14:53:38;101275.19;;;20.05;100.00
38630;BME280;24384;51.988;4.644;2022-09-09T14:56:07;101229.97;;;21.05;100.00
38630;BME280;24384;51.988;4.644;2022-09-09T14:58:34;101173.72;;;22.16;100.00
38630;BME280;24384;51.988;4.644;2022-09-09T15:01:07;101093.50;;;22.34;100.00
38630;BME280;24384;51.988;4.644;2022-09-09T15:03:35;101063.56;;;22.97;100.00
38630;BME280;24384;51.988;4.644;2022-09-09T15:06:11;100982.09;;;23.75;100.00
38630;BME280;24384;51.988;4.644;2022-09-09T15:08:39;100925.81;;;23.57;100.00